Lytton, Canada
Current Conditions -  °F | °C
As of 8:23 AM on Tuesday 21 Oct 2014 (Local Time) from CWLY Reporting Station
Light Rain Light Rain  
Wind Chill: 52°   Ceiling: 7500
Heat Index: 52°   Visibility: 9mi
Dew Point: 46°   Wind: 13mph
Humidity: 82%   Direction: 180°S
Pressure: 29.75"   Gusts: 21mph
Location:  50.23°N, 121.58°W
Report Text: CWLY 211523Z AUTO 18011G18KT 130V200 9SM -RA FEW043 BKN075 BKN095 11/08 A2975 RMK SLP075
Loading
Personal Weather Stations






























Interactive Weather Map
Tropical Storm Tracking
New forecast layout! Learn more

10-Day Weather Forecast

Advertisements
Track Severe Weather on mobile